Αναφορές Αεροδρομίων

 

KSJC - San Jose, California, USA
Distance from station: ΒΑ 14km
Ενημερώθηκε: 03/03/2021 07:53
Σχεδόν νεφελώδης
Σχεδόν νεφελώδης
 Ανεμος από ΒΔ
Ανεμος: ΒΔ 7 km/h
Θερμοκρασία: 12°C
Σημείο Δρόσου: 6°C
Υγρασία: 67%
Βαρόμετρο: 1010.2 hPa
Clouds: Σχεδόν νεφελώδης
Visibility: 16 km
Cloud details: Few Clouds 1524 m
Μερικώς νεφελώδης 3048 m
Σχεδόν νεφελώδης 4572 m
2021/03/03 05:53 KSJC 030553Z 32004KT 10SM FEW050 SCT100 BKN150 12/06 A2983 RMK AO2 SLP102 T01170056 10172 20117 50000
KNUQ - Moffett Nas/Mtn, California, USA
Distance from station: Β 14km
Ενημερώθηκε: 03/03/2021 07:50
Αίθριος
Αίθριος
 Ανεμος από calm
Ανεμος: Απνοια
Θερμοκρασία: 12°C
Σημείο Δρόσου: 7°C
Υγρασία: 72%
Βαρόμετρο: 1010.5 hPa
Clouds: Αίθριος
Visibility: 16 km
2021/03/03 05:50 KNUQ 030550Z AUTO 00000KT 10SM CLR 12/07 A2984 RMK AO2
 
KPAO - Palo Alto, California, USA
Distance from station: ΒΒΔ 23km
Ενημερώθηκε: 03/03/2021 06:47
NOT Current
Συννεφιά
Συννεφιά
 Ανεμος από ΒΔ
Ανεμος: ΒΔ 7 km/h
Θερμοκρασία: 11°C
Σημείο Δρόσου: 7°C
Υγρασία: 77%
Βαρόμετρο: 1010.5 hPa
Clouds: Συννεφιά
Visibility: 16 km
Cloud details: Συννεφιά 3048 m
2021/03/03 04:47 KPAO 030447Z 31004KT 10SM OVC100 11/07 A2984 RMK LAST
KRHV - San Jose/Reid, California, USA
Distance from station: ΑΒΑ 19km
Ενημερώθηκε: 03/03/2021 07:55
Σχεδόν νεφελώδης
Σχεδόν νεφελώδης
 Ανεμος από calm
Ανεμος: Απνοια
Θερμοκρασία: 12°C
Σημείο Δρόσου: 6°C
Υγρασία: 67%
Βαρόμετρο: 1010.5 hPa
Clouds: Σχεδόν νεφελώδης
Visibility: 16 km
Cloud details: Σχεδόν νεφελώδης 3658 m
2021/03/03 05:55 KRHV 030555Z 00000KT 10SM BKN120 12/06 A2984 RMK LAST
 
KOAK - Oakland, California, USA
Distance from station: ΒΒΔ 50km
Ενημερώθηκε: 03/03/2021 07:53
Συννεφιά
Συννεφιά
 Ανεμος από calm
Ανεμος: Απνοια
Θερμοκρασία: 13°C
Σημείο Δρόσου: 6°C
Υγρασία: 63%
Βαρόμετρο: 1010.8 hPa
Clouds: Συννεφιά
Visibility: 16 km
Cloud details: Σχεδόν νεφελώδης 5486 m
Συννεφιά 6096 m
2021/03/03 05:53 KOAK 030553Z 00000KT 10SM BKN180 OVC200 13/06 A2985 RMK AO2 SLP107 T01330056 10172 20133 50000 $
KSQL - San Carlos Airpo, California, USA
Distance from station: ΒΔ 34km
Ενημερώθηκε: 03/03/2021 07:55
Αίθριος
Αίθριος
 Ανεμος από ΝΔ
Ανεμος: ΝΔ 6 km/h
Θερμοκρασία: 12°C
Σημείο Δρόσου: 5°C
Υγρασία: 63%
Βαρόμετρο: 1010.8 hPa
Clouds: Αίθριος
Visibility: 16 km
2021/03/03 05:55 KSQL 030555Z AUTO 23003KT 10SM CLR 12/05 A2985 RMK AO2
 
KSFO - San Francisco, California, USA
Distance from station: ΒΔ 49km
Ενημερώθηκε: 03/03/2021 07:56
Συννεφιά
Συννεφιά
 Ανεμος από Δ
Ανεμος: Δ 22 km/h
Θερμοκρασία: 12°C
Σημείο Δρόσου: 4°C
Υγρασία: 58%
Βαρόμετρο: 1010.2 hPa
Clouds: Συννεφιά
Visibility: 16 km
Cloud details: Few Clouds 5486 m
Συννεφιά 6096 m
2021/03/03 05:56 KSFO 030556Z 28012KT 10SM FEW180 OVC200 12/04 A2983 RMK AO2 SLP102 T01220039 10150 20122 58001
KE16 - San Martin, California, USA
Distance from station: ΑΝΑ 43km
Ενημερώθηκε: 03/03/2021 07:55
Few Clouds
Few Clouds
 Ανεμος από calm
Ανεμος: Απνοια
Θερμοκρασία: 10°C
Σημείο Δρόσου: 4°C
Υγρασία: 67%
Βαρόμετρο: 1010.5 hPa
Clouds: Few Clouds
Visibility: 16 km
Cloud details: Few Clouds 579 m
2021/03/03 05:55 KE16 030555Z AUTO 00000KT 10SM FEW019 10/04 A2984 RMK AO2 PWINO PNO
 
KWVI - Watsonville, California, USA
Distance from station: ΝΝΑ 44km
Ενημερώθηκε: 03/03/2021 07:53
Αίθριος
Αίθριος
 Ανεμος από calm
Ανεμος: Απνοια
Θερμοκρασία: 10°C
Σημείο Δρόσου: 5°C
Υγρασία: 71%
Βαρόμετρο: 1010.2 hPa
Clouds: Αίθριος
Visibility: 16 km
2021/03/03 05:53 KWVI 030553Z AUTO 00000KT 10SM CLR 10/05 A2983 RMK AO2 SLP099 T01000050 10133 20094 58007
KHAF - Half Moon Bay, California, USA
Distance from station: ΔΒΔ 50km
Ενημερώθηκε: 03/03/2021 07:55
Few Clouds
Few Clouds
 Ανεμος από calm
Ανεμος: Απνοια
Θερμοκρασία: 7°C
Σημείο Δρόσου: 5°C
Υγρασία: 87%
Βαρόμετρο: 1010.8 hPa
Clouds: Few Clouds
Visibility: 13 km
Cloud details: Few Clouds 91 m
2021/03/03 05:55 KHAF 030555Z AUTO 00000KT 8SM FEW003 07/05 A2985 RMK AO2
 
KHWD - Hayward, California, USA
Distance from station: Β 44km
Ενημερώθηκε: 03/03/2021 07:54
Αίθριος
Αίθριος
 Ανεμος από calm
Ανεμος: Απνοια
Θερμοκρασία: 11°C
Σημείο Δρόσου: 5°C
Υγρασία: 67%
Βαρόμετρο: 1010.2 hPa
Clouds: Αίθριος
Visibility: 16 km
2021/03/03 05:54 KHWD 030554Z 00000KT 10SM CLR 11/05 A2983 RMK AO2 SLP112 T01110050 10156 20111 51001
KLVK - Livermore, California, USA
Distance from station: ΒΒΑ 51km
Ενημερώθηκε: 03/03/2021 07:53
Αίθριος
Αίθριος
 Ανεμος από calm
Ανεμος: Απνοια
Θερμοκρασία: 10°C
Σημείο Δρόσου: 1°C
Υγρασία: 54%
Βαρόμετρο: 1009.8 hPa
Clouds: Αίθριος
Visibility: 16 km
2021/03/03 05:53 KLVK 030553Z AUTO 00000KT 10SM CLR 10/01 A2982 RMK AO2 SLP098 T01000006 10189 20100 51000